sensor_id;sensor_type;location;lat;lon;timestamp;temperature;humidity
54684;DHT22;40582;53.100;6.686;2022-09-01T00:01:53;13.90;99.90
54684;DHT22;40582;53.100;6.686;2022-09-01T00:04:25;13.70;99.90
54684;DHT22;40582;53.100;6.686;2022-09-01T00:06:52;13.80;99.90
54684;DHT22;40582;53.100;6.686;2022-09-01T00:09:20;13.70;99.90
54684;DHT22;40582;53.100;6.686;2022-09-01T00:11:51;13.70;99.90
54684;DHT22;40582;53.100;6.686;2022-09-01T00:14:24;13.70;99.90
54684;DHT22;40582;53.100;6.686;2022-09-01T00:16:50;13.70;99.90
54684;DHT22;40582;53.100;6.686;2022-09-01T00:19:16;13.70;99.90
54684;DHT22;40582;53.100;6.686;2022-09-01T00:21:43;13.70;99.90
54684;DHT22;40582;53.100;6.686;2022-09-01T00:24:10;13.70;99.90
54684;DHT22;40582;53.100;6.686;2022-09-01T00:26:37;13.60;99.90
54684;DHT22;40582;53.100;6.686;2022-09-01T00:29:03;13.60;99.90
54684;DHT22;40582;53.100;6.686;2022-09-01T00:31:29;13.60;99.90
54684;DHT22;40582;53.100;6.686;2022-09-01T00:33:55;13.60;99.90
54684;DHT22;40582;53.100;6.686;2022-09-01T00:36:21;13.60;99.90
54684;DHT22;40582;53.100;6.686;2022-09-01T00:38:49;13.50;99.90
54684;DHT22;40582;53.100;6.686;2022-09-01T00:41:16;13.50;99.90
54684;DHT22;40582;53.100;6.686;2022-09-01T00:43:55;13.40;99.90
54684;DHT22;40582;53.100;6.686;2022-09-01T00:46:23;13.40;99.90
54684;DHT22;40582;53.100;6.686;2022-09-01T00:48:54;13.40;99.90
54684;DHT22;40582;53.100;6.686;2022-09-01T00:51:21;13.40;99.90
54684;DHT22;40582;53.100;6.686;2022-09-01T00:53:47;13.30;99.90
54684;DHT22;40582;53.100;6.686;2022-09-01T00:56:14;13.30;99.90
54684;DHT22;40582;53.100;6.686;2022-09-01T00:58:41;13.30;99.90
54684;DHT22;40582;53.100;6.686;2022-09-01T01:01:09;13.30;99.90
54684;DHT22;40582;53.100;6.686;2022-09-01T01:03:35;13.30;99.90
54684;DHT22;40582;53.100;6.686;2022-09-01T01:06:05;13.20;99.90
54684;DHT22;40582;53.100;6.686;2022-09-01T01:08:35;13.20;99.90
54684;DHT22;40582;53.100;6.686;2022-09-01T01:11:21;13.20;99.90
54684;DHT22;40582;53.100;6.686;2022-09-01T01:13:54;13.10;99.90
54684;DHT22;40582;53.100;6.686;2022-09-01T01:16:21;13.10;99.90
54684;DHT22;40582;53.100;6.686;2022-09-01T01:18:47;13.10;99.90
54684;DHT22;40582;53.100;6.686;2022-09-01T01:21:28;13.20;99.90
54684;DHT22;40582;53.100;6.686;2022-09-01T01:24:23;13.10;99.90
54684;DHT22;40582;53.100;6.686;2022-09-01T01:26:49;13.10;99.90
54684;DHT22;40582;53.100;6.686;2022-09-01T01:29:15;13.10;99.90
54684;DHT22;40582;53.100;6.686;2022-09-01T01:31:42;13.10;99.90
54684;DHT22;40582;53.100;6.686;2022-09-01T01:34:08;13.00;99.90
54684;DHT22;40582;53.100;6.686;2022-09-01T01:36:36;13.00;99.90
54684;DHT22;40582;53.100;6.686;2022-09-01T01:39:14;12.90;99.90
54684;DHT22;40582;53.100;6.686;2022-09-01T01:41:41;13.00;99.90
54684;DHT22;40582;53.100;6.686;2022-09-01T01:44:09;12.90;99.90
54684;DHT22;40582;53.100;6.686;2022-09-01T01:46:44;13.00;99.90
54684;DHT22;40582;53.100;6.686;2022-09-01T01:49:12;12.90;99.90
54684;DHT22;40582;53.100;6.686;2022-09-01T01:51:43;12.90;99.90
54684;DHT22;40582;53.100;6.686;2022-09-01T01:54:09;12.90;99.90
54684;DHT22;40582;53.100;6.686;2022-09-01T01:56:35;12.90;99.90
54684;DHT22;40582;53.100;6.686;2022-09-01T01:59:04;12.80;99.90
54684;DHT22;40582;53.100;6.686;2022-09-01T02:01:31;12.80;99.90
54684;DHT22;40582;53.100;6.686;2022-09-01T02:03:59;12.80;99.90
54684;DHT22;40582;53.100;6.686;2022-09-01T02:06:26;12.70;99.90
54684;DHT22;40582;53.100;6.686;2022-09-01T02:08:54;12.80;99.90
54684;DHT22;40582;53.100;6.686;2022-09-01T02:11:23;12.80;99.90
54684;DHT22;40582;53.100;6.686;2022-09-01T02:13:51;12.80;99.90
54684;DHT22;40582;53.100;6.686;2022-09-01T02:16:22;12.80;99.90
54684;DHT22;40582;53.100;6.686;2022-09-01T02:18:49;12.80;99.90
54684;DHT22;40582;53.100;6.686;2022-09-01T02:21:18;12.80;99.90
54684;DHT22;40582;53.100;6.686;2022-09-01T02:24:10;12.80;99.90
54684;DHT22;40582;53.100;6.686;2022-09-01T02:26:41;12.80;99.90
54684;DHT22;40582;53.100;6.686;2022-09-01T02:29:10;12.80;99.90
54684;DHT22;40582;53.100;6.686;2022-09-01T02:31:42;12.80;99.90
54684;DHT22;40582;53.100;6.686;2022-09-01T02:34:09;12.80;99.90
54684;DHT22;40582;53.100;6.686;2022-09-01T02:36:49;12.80;99.90
54684;DHT22;40582;53.100;6.686;2022-09-01T02:39:26;12.80;99.90
54684;DHT22;40582;53.100;6.686;2022-09-01T02:41:52;12.80;99.90
54684;DHT22;40582;53.100;6.686;2022-09-01T02:44:18;12.80;99.90
54684;DHT22;40582;53.100;6.686;2022-09-01T02:46:45;12.80;99.90
54684;DHT22;40582;53.100;6.686;2022-09-01T02:49:18;12.80;99.90
54684;DHT22;40582;53.100;6.686;2022-09-01T02:51:48;12.80;99.90
54684;DHT22;40582;53.100;6.686;2022-09-01T02:54:15;12.90;99.90
54684;DHT22;40582;53.100;6.686;2022-09-01T02:56:43;12.90;99.90
54684;DHT22;40582;53.100;6.686;2022-09-01T02:59:10;12.90;99.90
54684;DHT22;40582;53.100;6.686;2022-09-01T03:01:38;12.80;99.90
54684;DHT22;40582;53.100;6.686;2022-09-01T03:04:05;12.80;99.90
54684;DHT22;40582;53.100;6.686;2022-09-01T03:06:34;12.80;99.90
54684;DHT22;40582;53.100;6.686;2022-09-01T03:09:02;12.80;99.90
54684;DHT22;40582;53.100;6.686;2022-09-01T03:11:30;12.80;99.90
54684;DHT22;40582;53.100;6.686;2022-09-01T03:13:57;12.80;99.90
54684;DHT22;40582;53.100;6.686;2022-09-01T03:16:23;12.80;99.90
54684;DHT22;40582;53.100;6.686;2022-09-01T03:18:49;12.90;99.90
54684;DHT22;40582;53.100;6.686;2022-09-01T03:21:15;12.80;99.90
54684;DHT22;40582;53.100;6.686;2022-09-01T03:23:45;12.90;99.90
54684;DHT22;40582;53.100;6.686;2022-09-01T03:26:12;12.90;99.90
54684;DHT22;40582;53.100;6.686;2022-09-01T03:28:39;12.80;99.90
54684;DHT22;40582;53.100;6.686;2022-09-01T03:31:05;12.80;99.90
54684;DHT22;40582;53.100;6.686;2022-09-01T03:33:32;12.70;99.90
54684;DHT22;40582;53.100;6.686;2022-09-01T03:35:59;12.70;99.90
54684;DHT22;40582;53.100;6.686;2022-09-01T03:38:25;12.60;99.90
54684;DHT22;40582;53.100;6.686;2022-09-01T03:40:58;12.60;99.90
54684;DHT22;40582;53.100;6.686;2022-09-01T03:43:25;12.60;99.90
54684;DHT22;40582;53.100;6.686;2022-09-01T03:45:53;12.50;99.90
54684;DHT22;40582;53.100;6.686;2022-09-01T03:48:21;12.40;99.90
54684;DHT22;40582;53.100;6.686;2022-09-01T03:50:47;12.40;99.90
54684;DHT22;40582;53.100;6.686;2022-09-01T03:53:18;12.30;99.90
54684;DHT22;40582;53.100;6.686;2022-09-01T03:55:46;12.30;99.90
54684;DHT22;40582;53.100;6.686;2022-09-01T03:58:14;12.20;99.90
54684;DHT22;40582;53.100;6.686;2022-09-01T04:00:54;12.20;99.90
54684;DHT22;40582;53.100;6.686;2022-09-01T04:03:25;12.20;99.90
54684;DHT22;40582;53.100;6.686;2022-09-01T04:05:52;12.20;99.90
54684;DHT22;40582;53.100;6.686;2022-09-01T04:08:20;12.20;99.90
54684;DHT22;40582;53.100;6.686;2022-09-01T04:10:49;12.20;99.90
54684;DHT22;40582;53.100;6.686;2022-09-01T04:13:17;12.20;99.90
54684;DHT22;40582;53.100;6.686;2022-09-01T04:15:43;12.10;99.90
54684;DHT22;40582;53.100;6.686;2022-09-01T04:18:09;12.10;99.90
54684;DHT22;40582;53.100;6.686;2022-09-01T04:20:40;12.10;99.90
54684;DHT22;40582;53.100;6.686;2022-09-01T04:23:19;12.10;99.90
54684;DHT22;40582;53.100;6.686;2022-09-01T04:25:48;12.10;99.90
54684;DHT22;40582;53.100;6.686;2022-09-01T04:28:16;12.10;99.90
54684;DHT22;40582;53.100;6.686;2022-09-01T04:30:52;12.10;99.90
54684;DHT22;40582;53.100;6.686;2022-09-01T04:33:25;12.00;99.90
54684;DHT22;40582;53.100;6.686;2022-09-01T04:35:51;12.00;99.90
54684;DHT22;40582;53.100;6.686;2022-09-01T04:38:20;12.00;99.90
54684;DHT22;40582;53.100;6.686;2022-09-01T04:40:46;12.00;99.90
54684;DHT22;40582;53.100;6.686;2022-09-01T04:43:14;12.00;99.90
54684;DHT22;40582;53.100;6.686;2022-09-01T04:45:40;12.00;99.90
54684;DHT22;40582;53.100;6.686;2022-09-01T04:48:07;12.00;99.90
54684;DHT22;40582;53.100;6.686;2022-09-01T04:50:33;11.90;99.90
54684;DHT22;40582;53.100;6.686;2022-09-01T04:53:02;11.90;99.90
54684;DHT22;40582;53.100;6.686;2022-09-01T04:55:29;11.90;99.90
54684;DHT22;40582;53.100;6.686;2022-09-01T04:57:56;11.90;99.90
54684;DHT22;40582;53.100;6.686;2022-09-01T05:00:24;11.80;99.90
54684;DHT22;40582;53.100;6.686;2022-09-01T05:02:55;11.80;99.90
54684;DHT22;40582;53.100;6.686;2022-09-01T05:05:41;11.80;99.90
54684;DHT22;40582;53.100;6.686;2022-09-01T05:08:14;11.80;99.90
54684;DHT22;40582;53.100;6.686;2022-09-01T05:10:43;11.90;99.90
54684;DHT22;40582;53.100;6.686;2022-09-01T05:13:14;12.00;99.90
54684;DHT22;40582;53.100;6.686;2022-09-01T05:15:43;12.10;99.90
54684;DHT22;40582;53.100;6.686;2022-09-01T05:18:17;12.10;99.90
54684;DHT22;40582;53.100;6.686;2022-09-01T05:20:49;12.20;99.90
54684;DHT22;40582;53.100;6.686;2022-09-01T05:23:15;12.20;99.90
54684;DHT22;40582;53.100;6.686;2022-09-01T05:25:44;12.30;99.90
54684;DHT22;40582;53.100;6.686;2022-09-01T05:28:11;12.30;99.90
54684;DHT22;40582;53.100;6.686;2022-09-01T05:30:38;12.30;99.90
54684;DHT22;40582;53.100;6.686;2022-09-01T05:33:05;12.30;99.90
54684;DHT22;40582;53.100;6.686;2022-09-01T05:35:39;12.30;99.90
54684;DHT22;40582;53.100;6.686;2022-09-01T05:38:11;12.30;99.90
54684;DHT22;40582;53.100;6.686;2022-09-01T05:40:40;12.30;99.90
54684;DHT22;40582;53.100;6.686;2022-09-01T05:43:15;12.40;99.90
54684;DHT22;40582;53.100;6.686;2022-09-01T05:45:41;12.40;99.90
54684;DHT22;40582;53.100;6.686;2022-09-01T05:48:12;12.40;99.90
54684;DHT22;40582;53.100;6.686;2022-09-01T05:50:46;12.50;99.90
54684;DHT22;40582;53.100;6.686;2022-09-01T05:53:14;12.70;99.90
54684;DHT22;40582;53.100;6.686;2022-09-01T05:55:46;12.80;99.90
54684;DHT22;40582;53.100;6.686;2022-09-01T05:58:15;13.00;99.90
54684;DHT22;40582;53.100;6.686;2022-09-01T06:00:42;13.10;99.90
54684;DHT22;40582;53.100;6.686;2022-09-01T06:03:12;13.10;99.90
54684;DHT22;40582;53.100;6.686;2022-09-01T06:05:39;13.10;99.90
54684;DHT22;40582;53.100;6.686;2022-09-01T06:08:06;13.10;99.90
54684;DHT22;40582;53.100;6.686;2022-09-01T06:10:35;13.10;99.90
54684;DHT22;40582;53.100;6.686;2022-09-01T06:13:03;13.20;99.90
54684;DHT22;40582;53.100;6.686;2022-09-01T06:15:30;13.30;99.90
54684;DHT22;40582;53.100;6.686;2022-09-01T06:17:57;13.30;99.90
54684;DHT22;40582;53.100;6.686;2022-09-01T06:20:24;13.50;99.90
54684;DHT22;40582;53.100;6.686;2022-09-01T06:22:50;13.60;99.90
54684;DHT22;40582;53.100;6.686;2022-09-01T06:25:18;13.80;99.90
54684;DHT22;40582;53.100;6.686;2022-09-01T06:27:45;14.10;99.90
54684;DHT22;40582;53.100;6.686;2022-09-01T06:30:14;14.40;99.90
54684;DHT22;40582;53.100;6.686;2022-09-01T06:32:43;14.60;99.90
54684;DHT22;40582;53.100;6.686;2022-09-01T06:35:13;14.80;99.90
54684;DHT22;40582;53.100;6.686;2022-09-01T06:37:41;14.90;99.90
54684;DHT22;40582;53.100;6.686;2022-09-01T06:40:09;15.00;99.90
54684;DHT22;40582;53.100;6.686;2022-09-01T06:42:46;15.00;99.90
54684;DHT22;40582;53.100;6.686;2022-09-01T06:45:16;15.00;99.90
54684;DHT22;40582;53.100;6.686;2022-09-01T06:47:44;15.10;99.90
54684;DHT22;40582;53.100;6.686;2022-09-01T06:50:17;15.20;99.90
54684;DHT22;40582;53.100;6.686;2022-09-01T06:52:45;15.30;99.90
54684;DHT22;40582;53.100;6.686;2022-09-01T06:55:13;15.60;99.90
54684;DHT22;40582;53.100;6.686;2022-09-01T06:57:40;15.90;99.90
54684;DHT22;40582;53.100;6.686;2022-09-01T07:00:15;16.10;99.90
54684;DHT22;40582;53.100;6.686;2022-09-01T07:02:57;16.10;99.90
54684;DHT22;40582;53.100;6.686;2022-09-01T07:05:24;16.10;99.90
54684;DHT22;40582;53.100;6.686;2022-09-01T07:07:54;16.10;99.90
54684;DHT22;40582;53.100;6.686;2022-09-01T07:10:25;16.00;99.90
54684;DHT22;40582;53.100;6.686;2022-09-01T07:12:53;16.00;99.90
54684;DHT22;40582;53.100;6.686;2022-09-01T07:15:21;16.10;99.90
54684;DHT22;40582;53.100;6.686;2022-09-01T07:17:49;16.50;99.90
54684;DHT22;40582;53.100;6.686;2022-09-01T07:20:18;16.90;99.90
54684;DHT22;40582;53.100;6.686;2022-09-01T07:22:46;17.30;99.90
54684;DHT22;40582;53.100;6.686;2022-09-01T07:25:12;17.60;99.90
54684;DHT22;40582;53.100;6.686;2022-09-01T07:27:40;17.80;99.90
54684;DHT22;40582;53.100;6.686;2022-09-01T07:30:06;18.00;99.90
54684;DHT22;40582;53.100;6.686;2022-09-01T07:32:36;18.00;99.90
54684;DHT22;40582;53.100;6.686;2022-09-01T07:35:04;18.10;99.90
54684;DHT22;40582;53.100;6.686;2022-09-01T07:37:34;18.10;99.90
54684;DHT22;40582;53.100;6.686;2022-09-01T07:40:08;18.10;99.90
54684;DHT22;40582;53.100;6.686;2022-09-01T07:42:34;18.20;99.90
54684;DHT22;40582;53.100;6.686;2022-09-01T07:45:01;18.30;99.90
54684;DHT22;40582;53.100;6.686;2022-09-01T07:47:35;18.50;99.90
54684;DHT22;40582;53.100;6.686;2022-09-01T07:50:06;18.50;99.90
54684;DHT22;40582;53.100;6.686;2022-09-01T07:52:37;18.60;99.90
54684;DHT22;40582;53.100;6.686;2022-09-01T07:57:36;18.50;99.90
54684;DHT22;40582;53.100;6.686;2022-09-01T08:00:04;18.50;99.90
54684;DHT22;40582;53.100;6.686;2022-09-01T08:02:30;18.60;99.90
54684;DHT22;40582;53.100;6.686;2022-09-01T08:04:57;18.60;99.90
54684;DHT22;40582;53.100;6.686;2022-09-01T08:07:23;18.60;99.90
54684;DHT22;40582;53.100;6.686;2022-09-01T08:09:49;18.70;99.90
54684;DHT22;40582;53.100;6.686;2022-09-01T08:12:15;18.70;99.90
54684;DHT22;40582;53.100;6.686;2022-09-01T08:14:41;18.70;99.90
54684;DHT22;40582;53.100;6.686;2022-09-01T08:17:06;18.70;99.90
54684;DHT22;40582;53.100;6.686;2022-09-01T08:19:32;18.90;99.90
54684;DHT22;40582;53.100;6.686;2022-09-01T08:21:58;18.90;99.90
54684;DHT22;40582;53.100;6.686;2022-09-01T08:24:24;19.20;99.90
54684;DHT22;40582;53.100;6.686;2022-09-01T08:26:49;19.30;99.90
54684;DHT22;40582;53.100;6.686;2022-09-01T08:29:15;19.40;99.90
54684;DHT22;40582;53.100;6.686;2022-09-01T08:31:40;19.50;99.90
54684;DHT22;40582;53.100;6.686;2022-09-01T08:34:06;19.80;99.90
54684;DHT22;40582;53.100;6.686;2022-09-01T08:36:33;19.90;99.90
54684;DHT22;40582;53.100;6.686;2022-09-01T08:38:58;20.10;99.90
54684;DHT22;40582;53.100;6.686;2022-09-01T08:41:46;20.20;99.90
54684;DHT22;40582;53.100;6.686;2022-09-01T08:44:30;20.20;99.90
54684;DHT22;40582;53.100;6.686;2022-09-01T08:47:06;20.30;99.90
54684;DHT22;40582;53.100;6.686;2022-09-01T08:49:33;20.40;99.90
54684;DHT22;40582;53.100;6.686;2022-09-01T08:52:12;20.40;99.90
54684;DHT22;40582;53.100;6.686;2022-09-01T08:55:02;20.40;99.90
54684;DHT22;40582;53.100;6.686;2022-09-01T08:57:33;20.40;99.90
54684;DHT22;40582;53.100;6.686;2022-09-01T08:59:59;20.40;99.90
54684;DHT22;40582;53.100;6.686;2022-09-01T09:16:34;20.50;98.90
54684;DHT22;40582;53.100;6.686;2022-09-01T09:19:11;20.60;99.10
54684;DHT22;40582;53.100;6.686;2022-09-01T09:21:41;20.70;98.90
54684;DHT22;40582;53.100;6.686;2022-09-01T09:26:47;20.90;98.40
54684;DHT22;40582;53.100;6.686;2022-09-01T09:29:13;21.10;98.00
54684;DHT22;40582;53.100;6.686;2022-09-01T09:31:40;21.30;97.40
54684;DHT22;40582;53.100;6.686;2022-09-01T09:34:34;21.30;96.90
54684;DHT22;40582;53.100;6.686;2022-09-01T09:37:18;21.50;96.70
54684;DHT22;40582;53.100;6.686;2022-09-01T09:40:04;21.70;96.20
54684;DHT22;40582;53.100;6.686;2022-09-01T09:43:02;21.90;95.30
54684;DHT22;40582;53.100;6.686;2022-09-01T09:45:31;22.10;95.20
54684;DHT22;40582;53.100;6.686;2022-09-01T09:47:59;22.30;94.80
54684;DHT22;40582;53.100;6.686;2022-09-01T09:50:42;22.50;94.30
54684;DHT22;40582;53.100;6.686;2022-09-01T09:56:08;22.80;93.60
54684;DHT22;40582;53.100;6.686;2022-09-01T09:58:39;22.90;92.80
54684;DHT22;40582;53.100;6.686;2022-09-01T10:03:53;22.90;91.00
54684;DHT22;40582;53.100;6.686;2022-09-01T10:06:36;23.10;91.40
54684;DHT22;40582;53.100;6.686;2022-09-01T10:09:09;23.30;90.60
54684;DHT22;40582;53.100;6.686;2022-09-01T10:11:42;23.50;90.60
54684;DHT22;40582;53.100;6.686;2022-09-01T10:14:40;23.60;89.20
54684;DHT22;40582;53.100;6.686;2022-09-01T10:17:13;23.20;87.10
54684;DHT22;40582;53.100;6.686;2022-09-01T10:19:51;23.20;88.00
54684;DHT22;40582;53.100;6.686;2022-09-01T10:22:19;23.20;88.20
54684;DHT22;40582;53.100;6.686;2022-09-01T10:24:46;23.30;89.50
54684;DHT22;40582;53.100;6.686;2022-09-01T10:27:22;23.50;88.10
54684;DHT22;40582;53.100;6.686;2022-09-01T10:30:10;23.60;83.90
54684;DHT22;40582;53.100;6.686;2022-09-01T10:32:44;23.70;82.50
54684;DHT22;40582;53.100;6.686;2022-09-01T10:35:34;23.70;83.10
54684;DHT22;40582;53.100;6.686;2022-09-01T10:38:07;23.50;80.40
54684;DHT22;40582;53.100;6.686;2022-09-01T10:40:36;23.30;80.00
54684;DHT22;40582;53.100;6.686;2022-09-01T10:43:33;23.50;81.00
54684;DHT22;40582;53.100;6.686;2022-09-01T10:48:50;23.80;78.80
54684;DHT22;40582;53.100;6.686;2022-09-01T10:53:56;24.10;76.30
54684;DHT22;40582;53.100;6.686;2022-09-01T10:56:46;23.80;73.30
54684;DHT22;40582;53.100;6.686;2022-09-01T10:59:25;23.60;73.50
54684;DHT22;40582;53.100;6.686;2022-09-01T11:10:15;23.90;73.00
54684;DHT22;40582;53.100;6.686;2022-09-01T11:15:37;23.80;72.00
54684;DHT22;40582;53.100;6.686;2022-09-01T11:18:23;24.10;70.70
54684;DHT22;40582;53.100;6.686;2022-09-01T11:20:50;24.20;70.90
54684;DHT22;40582;53.100;6.686;2022-09-01T11:23:29;24.50;69.80
54684;DHT22;40582;53.100;6.686;2022-09-01T11:28:57;25.20;69.10
54684;DHT22;40582;53.100;6.686;2022-09-01T11:31:51;25.30;68.00
54684;DHT22;40582;53.100;6.686;2022-09-01T11:34:21;24.90;65.60
54684;DHT22;40582;53.100;6.686;2022-09-01T11:36:57;24.60;66.50
54684;DHT22;40582;53.100;6.686;2022-09-01T11:44:51;24.70;63.70
54684;DHT22;40582;53.100;6.686;2022-09-01T11:47:23;24.50;65.50
54684;DHT22;40582;53.100;6.686;2022-09-01T11:52:20;24.70;63.50
54684;DHT22;40582;53.100;6.686;2022-09-01T11:54:47;24.60;65.40
54684;DHT22;40582;53.100;6.686;2022-09-01T11:59:55;25.20;65.30
54684;DHT22;40582;53.100;6.686;2022-09-01T12:02:27;25.40;64.30
54684;DHT22;40582;53.100;6.686;2022-09-01T12:04:56;25.70;64.70
54684;DHT22;40582;53.100;6.686;2022-09-01T12:09:56;25.90;62.80
54684;DHT22;40582;53.100;6.686;2022-09-01T12:12:36;26.10;64.20
54684;DHT22;40582;53.100;6.686;2022-09-01T12:15:10;26.30;61.40
54684;DHT22;40582;53.100;6.686;2022-09-01T12:17:41;26.30;61.60
54684;DHT22;40582;53.100;6.686;2022-09-01T12:20:34;26.20;62.10
54684;DHT22;40582;53.100;6.686;2022-09-01T12:23:00;26.30;61.50
54684;DHT22;40582;53.100;6.686;2022-09-01T12:25:29;26.00;62.00
54684;DHT22;40582;53.100;6.686;2022-09-01T12:27:58;25.90;62.60
54684;DHT22;40582;53.100;6.686;2022-09-01T12:30:25;25.80;62.60
54684;DHT22;40582;53.100;6.686;2022-09-01T12:32:52;25.40;62.70
54684;DHT22;40582;53.100;6.686;2022-09-01T12:35:25;24.90;62.90
54684;DHT22;40582;53.100;6.686;2022-09-01T12:38:12;24.40;63.70
54684;DHT22;40582;53.100;6.686;2022-09-01T12:40:37;24.30;64.20
54684;DHT22;40582;53.100;6.686;2022-09-01T12:43:02;24.50;64.80
54684;DHT22;40582;53.100;6.686;2022-09-01T12:48:04;24.50;64.10
54684;DHT22;40582;53.100;6.686;2022-09-01T12:50:39;24.80;64.40
54684;DHT22;40582;53.100;6.686;2022-09-01T12:53:14;24.70;64.10
54684;DHT22;40582;53.100;6.686;2022-09-01T12:55:59;24.30;64.10
54684;DHT22;40582;53.100;6.686;2022-09-01T12:58:26;24.00;65.00
54684;DHT22;40582;53.100;6.686;2022-09-01T13:01:05;24.00;65.90
54684;DHT22;40582;53.100;6.686;2022-09-01T13:03:33;24.10;65.30
54684;DHT22;40582;53.100;6.686;2022-09-01T13:06:01;24.00;65.10
54684;DHT22;40582;53.100;6.686;2022-09-01T13:08:32;23.70;64.90
54684;DHT22;40582;53.100;6.686;2022-09-01T13:11:07;23.60;65.70
54684;DHT22;40582;53.100;6.686;2022-09-01T13:13:34;23.50;65.00
54684;DHT22;40582;53.100;6.686;2022-09-01T13:16:01;23.40;65.10
54684;DHT22;40582;53.100;6.686;2022-09-01T13:18:33;23.40;65.00
54684;DHT22;40582;53.100;6.686;2022-09-01T13:20:59;23.30;64.70
54684;DHT22;40582;53.100;6.686;2022-09-01T13:23:25;23.30;65.20
54684;DHT22;40582;53.100;6.686;2022-09-01T13:25:51;23.40;65.30
54684;DHT22;40582;53.100;6.686;2022-09-01T13:28:17;23.60;65.10
54684;DHT22;40582;53.100;6.686;2022-09-01T13:30:48;24.00;65.30
54684;DHT22;40582;53.100;6.686;2022-09-01T13:33:18;24.20;65.00
54684;DHT22;40582;53.100;6.686;2022-09-01T13:35:44;24.20;64.80
54684;DHT22;40582;53.100;6.686;2022-09-01T13:38:10;24.00;65.00
54684;DHT22;40582;53.100;6.686;2022-09-01T13:40:36;24.10;65.60
54684;DHT22;40582;53.100;6.686;2022-09-01T13:43:02;24.00;65.40
54684;DHT22;40582;53.100;6.686;2022-09-01T13:45:29;24.00;65.20
54684;DHT22;40582;53.100;6.686;2022-09-01T13:47:55;23.70;65.50
54684;DHT22;40582;53.100;6.686;2022-09-01T13:50:21;23.60;65.40
54684;DHT22;40582;53.100;6.686;2022-09-01T13:52:51;23.50;65.90
54684;DHT22;40582;53.100;6.686;2022-09-01T13:55:20;23.30;66.30
54684;DHT22;40582;53.100;6.686;2022-09-01T13:57:46;23.20;67.20
54684;DHT22;40582;53.100;6.686;2022-09-01T14:00:18;23.10;67.30
54684;DHT22;40582;53.100;6.686;2022-09-01T14:02:46;23.00;66.80
54684;DHT22;40582;53.100;6.686;2022-09-01T14:05:18;23.00;66.90
54684;DHT22;40582;53.100;6.686;2022-09-01T14:07:44;23.10;67.00
54684;DHT22;40582;53.100;6.686;2022-09-01T14:10:10;23.50;66.70
54684;DHT22;40582;53.100;6.686;2022-09-01T14:12:36;23.70;65.60
54684;DHT22;40582;53.100;6.686;2022-09-01T14:15:03;23.70;65.80
54684;DHT22;40582;53.100;6.686;2022-09-01T14:17:28;23.60;65.80
54684;DHT22;40582;53.100;6.686;2022-09-01T14:19:54;23.50;66.10
54684;DHT22;40582;53.100;6.686;2022-09-01T14:22:21;23.30;66.30
54684;DHT22;40582;53.100;6.686;2022-09-01T14:24:47;23.00;66.70
54684;DHT22;40582;53.100;6.686;2022-09-01T14:27:13;23.00;66.90
54684;DHT22;40582;53.100;6.686;2022-09-01T14:29:39;23.20;67.00
54684;DHT22;40582;53.100;6.686;2022-09-01T14:32:04;23.50;67.00
54684;DHT22;40582;53.100;6.686;2022-09-01T14:34:33;23.70;66.10
54684;DHT22;40582;53.100;6.686;2022-09-01T14:36:58;23.90;65.10
54684;DHT22;40582;53.100;6.686;2022-09-01T14:39:24;23.80;65.10
54684;DHT22;40582;53.100;6.686;2022-09-01T14:41:49;23.70;65.60
54684;DHT22;40582;53.100;6.686;2022-09-01T14:44:15;23.60;65.70
54684;DHT22;40582;53.100;6.686;2022-09-01T14:46:41;23.40;65.80
54684;DHT22;40582;53.100;6.686;2022-09-01T14:49:08;23.30;65.70
54684;DHT22;40582;53.100;6.686;2022-09-01T14:51:36;23.40;65.90
54684;DHT22;40582;53.100;6.686;2022-09-01T14:54:03;23.50;65.30
54684;DHT22;40582;53.100;6.686;2022-09-01T14:56:29;23.40;65.80
54684;DHT22;40582;53.100;6.686;2022-09-01T14:58:55;23.30;65.50
54684;DHT22;40582;53.100;6.686;2022-09-01T15:01:26;23.20;65.50
54684;DHT22;40582;53.100;6.686;2022-09-01T15:03:53;23.00;65.60
54684;DHT22;40582;53.100;6.686;2022-09-01T15:06:20;23.00;66.00
54684;DHT22;40582;53.100;6.686;2022-09-01T15:08:47;23.00;66.30
54684;DHT22;40582;53.100;6.686;2022-09-01T15:11:15;23.10;67.20
54684;DHT22;40582;53.100;6.686;2022-09-01T15:13:41;23.30;65.50
54684;DHT22;40582;53.100;6.686;2022-09-01T15:16:14;23.40;65.00
54684;DHT22;40582;53.100;6.686;2022-09-01T15:18:41;23.50;64.20
54684;DHT22;40582;53.100;6.686;2022-09-01T15:21:07;23.40;64.10
54684;DHT22;40582;53.100;6.686;2022-09-01T15:23:33;23.10;63.90
54684;DHT22;40582;53.100;6.686;2022-09-01T15:25:59;23.00;64.10
54684;DHT22;40582;53.100;6.686;2022-09-01T15:28:25;22.80;64.30
54684;DHT22;40582;53.100;6.686;2022-09-01T15:30:52;22.50;64.90
54684;DHT22;40582;53.100;6.686;2022-09-01T15:33:19;22.30;65.70
54684;DHT22;40582;53.100;6.686;2022-09-01T15:35:45;22.20;66.50
54684;DHT22;40582;53.100;6.686;2022-09-01T15:38:13;22.10;67.00
54684;DHT22;40582;53.100;6.686;2022-09-01T15:40:40;22.10;67.10
54684;DHT22;40582;53.100;6.686;2022-09-01T15:43:07;22.00;67.10
54684;DHT22;40582;53.100;6.686;2022-09-01T15:45:32;21.90;66.30
54684;DHT22;40582;53.100;6.686;2022-09-01T15:47:58;21.90;66.30
54684;DHT22;40582;53.100;6.686;2022-09-01T15:50:25;21.90;66.30
54684;DHT22;40582;53.100;6.686;2022-09-01T15:52:55;21.80;66.90
54684;DHT22;40582;53.100;6.686;2022-09-01T15:55:24;21.90;65.70
54684;DHT22;40582;53.100;6.686;2022-09-01T15:57:51;21.90;65.30
54684;DHT22;40582;53.100;6.686;2022-09-01T16:00:21;21.90;65.50
54684;DHT22;40582;53.100;6.686;2022-09-01T16:02:47;22.00;65.10
54684;DHT22;40582;53.100;6.686;2022-09-01T16:05:13;22.00;64.90
54684;DHT22;40582;53.100;6.686;2022-09-01T16:07:40;22.10;65.00
54684;DHT22;40582;53.100;6.686;2022-09-01T16:10:06;22.20;64.50
54684;DHT22;40582;53.100;6.686;2022-09-01T16:12:38;22.20;64.40
54684;DHT22;40582;53.100;6.686;2022-09-01T16:15:04;22.10;63.40
54684;DHT22;40582;53.100;6.686;2022-09-01T16:20:23;21.90;64.50
54684;DHT22;40582;53.100;6.686;2022-09-01T16:22:56;21.80;64.90
54684;DHT22;40582;53.100;6.686;2022-09-01T16:25:32;21.70;65.20
54684;DHT22;40582;53.100;6.686;2022-09-01T16:28:06;21.60;66.10
54684;DHT22;40582;53.100;6.686;2022-09-01T16:30:35;21.50;66.40
54684;DHT22;40582;53.100;6.686;2022-09-01T16:33:03;21.40;67.10
54684;DHT22;40582;53.100;6.686;2022-09-01T16:35:43;21.30;67.30
54684;DHT22;40582;53.100;6.686;2022-09-01T16:44:17;21.20;68.10
54684;DHT22;40582;53.100;6.686;2022-09-01T16:53:42;21.10;68.40
54684;DHT22;40582;53.100;6.686;2022-09-01T16:58:47;21.00;69.00
54684;DHT22;40582;53.100;6.686;2022-09-01T17:07:19;20.90;69.10
54684;DHT22;40582;53.100;6.686;2022-09-01T17:09:56;20.90;69.60
54684;DHT22;40582;53.100;6.686;2022-09-01T17:12:44;20.80;69.90